Time;durP1;ratioP1;P1;durP2;ratioP2;P2;SDS_P1;SDS_P2;PMS_P1;PMS_P2;Temp;Humidity;BMP_temperature;BMP_pressure;BME280_temperature;BME280_humidity;BME280_pressure;Samples;Min_cycle;Max_cycle;Signal;HPM_P1;HPM_P2
2022/06/04 00:00:51;;;;;;;2.83;1.70;;;;;;;14.55;66.93;100930.86;1739602;82;21298;-66
2022/06/04 00:03:19;;;;;;;3.70;1.72;;;;;;;14.56;66.83;100932.55;1739765;82;21025;-66
2022/06/04 00:05:50;;;;;;;3.35;1.82;;;;;;;14.57;66.75;100928.06;1739653;82;21032;-66
2022/06/04 00:08:18;;;;;;;2.77;1.70;;;;;;;14.63;66.65;100934.19;1718897;83;21074;-65
2022/06/04 00:16:21;;;;;;;3.75;1.72;;;;;;;14.63;66.39;100919.56;1776415;80;21023;-66
2022/06/04 00:31:38;;;;;;;5.10;1.80;;;;;;;15.16;65.49;100907.31;1815569;78;22748;-67
2022/06/04 00:34:04;;;;;;;3.60;1.67;;;;;;;15.04;65.36;100907.91;1777579;79;21091;-66
2022/06/04 00:36:32;;;;;;;2.42;1.82;;;;;;;14.94;65.46;100910.20;1759050;80;21490;-65
2022/06/04 00:39:00;;;;;;;3.83;1.70;;;;;;;14.83;65.47;100908.50;1763424;80;20980;-66
2022/06/04 00:41:38;;;;;;;2.52;1.62;;;;;;;14.76;65.51;100905.53;1770059;80;20951;-65
2022/06/04 00:44:19;;;;;;;2.75;1.90;;;;;;;14.68;65.55;100912.53;1758918;79;21446;-65
2022/06/04 00:47:17;;;;;;;1.98;1.77;;;;;;;14.63;65.68;100913.41;1761716;80;20995;-67
2022/06/04 00:49:44;;;;;;;2.80;1.75;;;;;;;14.58;65.81;100912.01;1783323;79;22591;-67
2022/06/04 00:52:13;;;;;;;2.50;1.80;;;;;;;14.53;65.98;100931.98;1791757;79;21080;-66
2022/06/04 00:54:42;;;;;;;2.90;1.70;;;;;;;14.48;66.11;100930.23;1759123;80;21015;-66
2022/06/04 00:57:36;;;;;;;4.53;1.65;;;;;;;14.42;66.23;100928.90;1742213;79;21457;-65
2022/06/04 01:00:22;;;;;;;2.10;1.85;;;;;;;14.38;66.36;100931.94;1791027;80;21031;-66
2022/06/04 01:03:17;;;;;;;2.35;1.77;;;;;;;14.32;66.48;100930.18;1782636;79;21868;-69
2022/06/04 01:06:16;;;;;;;2.15;1.50;;;;;;;14.31;66.60;100932.97;1767823;80;21056;-66
2022/06/04 01:09:13;;;;;;;3.55;1.90;;;;;;;14.27;66.72;100927.06;1758423;80;21040;-66
2022/06/04 01:12:25;;;;;;;3.35;1.70;;;;;;;14.23;66.82;100921.67;1771350;80;20967;-65
2022/06/04 01:15:13;;;;;;;2.95;1.70;;;;;;;14.19;66.96;100920.27;1759224;78;20984;-66
2022/06/04 01:18:07;;;;;;;2.27;1.70;;;;;;;14.16;67.12;100923.16;1791048;79;22588;-67
2022/06/04 01:21:20;;;;;;;4.55;2.20;;;;;;;14.16;67.20;100923.65;1787834;80;21024;-67
2022/06/04 01:24:16;;;;;;;2.33;1.80;;;;;;;14.17;67.21;100918.69;1791779;79;20997;-66
2022/06/04 01:27:09;;;;;;;2.50;1.80;;;;;;;14.21;67.17;100924.11;1788859;78;21021;-66
2022/06/04 01:29:49;;;;;;;2.80;1.67;;;;;;;14.17;67.20;100919.53;1767666;80;21012;-65
2022/06/04 01:32:25;;;;;;;2.37;1.62;;;;;;;14.15;67.30;100907.36;1779687;79;21973;-66
2022/06/04 01:35:08;;;;;;;2.00;1.80;;;;;;;14.13;67.37;100896.87;1756236;80;21008;-66
2022/06/04 01:38:02;;;;;;;4.37;1.67;;;;;;;14.14;67.45;100901.20;1779498;79;21036;-66
2022/06/04 01:43:24;;;;;;;3.80;1.70;;;;;;;14.14;67.60;100900.37;1734638;82;21100;-66
2022/06/04 01:45:54;;;;;;;3.10;1.70;;;;;;;14.14;67.69;100897.71;1752435;82;21961;-66
2022/06/04 01:48:22;;;;;;;2.62;1.80;;;;;;;14.17;67.79;100886.32;1778005;79;20992;-65
2022/06/04 01:50:53;;;;;;;5.28;1.60;;;;;;;14.19;67.73;100891.04;1756932;79;21005;-66
2022/06/04 02:05:08;;;;;;;2.35;1.50;;;;;;;14.91;66.74;100892.70;1851306;75;22674;-69
2022/06/04 02:07:38;;;;;;;3.20;1.50;;;;;;;14.84;66.58;100898.21;1822180;78;20944;-65
2022/06/04 02:10:22;;;;;;;2.35;1.65;;;;;;;14.73;66.60;100891.19;1825056;78;21819;-65
2022/06/04 02:12:51;;;;;;;2.42;1.62;;;;;;;14.65;66.72;100885.70;1826548;77;21019;-66
2022/06/04 02:15:22;;;;;;;1.82;1.50;;;;;;;14.57;66.83;100890.84;1819568;78;21012;-65
2022/06/04 02:17:56;;;;;;;2.33;1.55;;;;;;;14.50;66.97;100891.89;1821600;78;21020;-67
2022/06/04 02:20:21;;;;;;;2.45;1.90;;;;;;;14.45;67.12;100890.60;1817618;77;20964;-66
2022/06/04 02:22:49;;;;;;;1.55;1.45;;;;;;;14.42;67.19;100888.19;1824105;77;21834;-66
2022/06/04 02:25:15;;;;;;;2.98;1.85;;;;;;;14.37;67.33;100893.89;1794883;80;20980;-65
2022/06/04 02:27:44;;;;;;;3.00;1.75;;;;;;;14.29;67.57;100893.25;1808574;78;20924;-66
2022/06/04 02:30:12;;;;;;;3.52;1.60;;;;;;;14.23;67.79;100895.10;1784991;78;20995;-67
2022/06/04 02:33:13;;;;;;;2.05;1.85;;;;;;;14.18;68.04;100895.13;1784326;80;20989;-66
2022/06/04 02:35:51;;;;;;;1.75;1.60;;;;;;;14.13;68.18;100893.38;1761416;81;21874;-66
2022/06/04 02:38:28;;;;;;;3.17;1.60;;;;;;;14.09;68.40;100892.81;1784745;79;22150;-65
2022/06/04 02:41:21;;;;;;;2.15;1.82;;;;;;;14.06;68.65;100898.36;1789979;80;20985;-64
2022/06/04 02:44:07;;;;;;;1.80;1.60;;;;;;;14.04;68.85;100891.02;1717746;81;21031;-65
2022/06/04 02:46:45;;;;;;;3.20;1.60;;;;;;;14.03;69.13;100893.32;1726201;81;20873;-64
2022/06/04 02:49:36;;;;;;;2.17;1.52;;;;;;;14.01;69.28;100886.81;1762549;79;21967;-64
2022/06/04 02:52:04;;;;;;;2.77;1.70;;;;;;;14.02;69.51;100899.13;1783193;79;20867;-64
2022/06/04 02:54:45;;;;;;;3.22;1.90;;;;;;;14.03;69.72;100902.13;1756328;80;20988;-64
2022/06/04 02:57:13;;;;;;;2.75;1.80;;;;;;;14.07;69.87;100904.02;1788362;79;21044;-65
2022/06/04 02:59:39;;;;;;;2.87;1.90;;;;;;;14.13;70.14;100898.69;1788101;80;20988;-65
2022/06/04 03:02:06;;;;;;;5.72;2.05;;;;;;;14.16;70.19;100899.25;1768455;79;21931;-65
2022/06/04 03:04:47;;;;;;;1.92;1.70;;;;;;;14.19;70.30;100897.69;1784967;79;21060;-65
2022/06/04 03:07:14;;;;;;;2.30;1.95;;;;;;;14.24;70.34;100897.27;1786816;79;21102;-64
2022/06/04 03:09:41;;;;;;;2.30;2.00;;;;;;;14.29;70.44;100893.74;1790563;78;21002;-65
2022/06/04 03:12:09;;;;;;;2.45;2.00;;;;;;;14.34;70.57;100890.18;1766950;80;21047;-66
2022/06/04 03:14:38;;;;;;;2.65;2.10;;;;;;;14.41;70.56;100889.17;1784101;78;21900;-64
2022/06/04 03:17:09;;;;;;;2.02;1.85;;;;;;;14.46;70.54;100889.14;1778054;79;20944;-64
2022/06/04 03:19:36;;;;;;;3.67;1.92;;;;;;;14.51;70.61;100896.23;1784143;79;21418;-64
2022/06/04 03:22:03;;;;;;;2.58;2.00;;;;;;;14.56;70.67;100890.01;1778749;80;21063;-65
2022/06/04 03:24:29;;;;;;;2.42;2.17;;;;;;;14.64;70.80;100888.02;1789182;78;21320;-66
2022/06/04 03:26:56;;;;;;;2.80;2.20;;;;;;;14.71;70.86;100882.52;1789407;78;21812;-66
2022/06/04 03:29:23;;;;;;;3.05;1.95;;;;;;;14.81;70.84;100887.36;1791178;78;20976;-65
2022/06/04 03:31:50;;;;;;;5.20;2.15;;;;;;;14.92;70.72;100885.56;1790861;79;21477;-67
2022/06/04 03:34:18;;;;;;;2.92;1.92;;;;;;;15.04;70.64;100883.12;1770095;80;21533;-65
2022/06/04 03:36:44;;;;;;;4.30;1.98;;;;;;;15.14;70.53;100882.64;1792919;78;20995;-66
2022/06/04 03:39:12;;;;;;;2.80;1.80;;;;;;;15.26;70.52;100887.37;1772684;80;22530;-68
2022/06/04 03:41:40;;;;;;;2.83;1.98;;;;;;;15.36;70.21;100889.54;1793785;80;20992;-66
2022/06/04 03:44:07;;;;;;;2.85;2.00;;;;;;;15.45;70.06;100892.20;1796247;80;20969;-66
2022/06/04 03:46:35;;;;;;;5.67;2.00;;;;;;;15.59;69.96;100892.74;1789577;80;21027;-67
2022/06/04 03:49:03;;;;;;;2.25;1.90;;;;;;;15.69;69.58;100887.78;1790177;78;21059;-66
2022/06/04 03:51:30;;;;;;;2.20;1.80;;;;;;;15.81;69.19;100891.62;1778049;79;21831;-66
2022/06/04 03:53:57;;;;;;;2.00;1.72;;;;;;;15.91;68.88;100891.11;1777698;80;20989;-66
2022/06/04 03:56:24;;;;;;;3.10;1.77;;;;;;;16.02;68.36;100890.97;1770206;79;21020;-66
2022/06/04 03:58:51;;;;;;;2.98;1.65;;;;;;;16.13;67.81;100889.95;1731471;81;21693;-66
2022/06/04 04:01:22;;;;;;;1.90;1.65;;;;;;;16.23;67.28;100890.75;1793161;78;21070;-66
2022/06/04 04:03:48;;;;;;;4.58;1.80;;;;;;;16.32;66.76;100897.87;1790640;79;21890;-66
2022/06/04 04:06:20;;;;;;;3.60;1.60;;;;;;;16.42;66.28;100893.84;1799030;79;20952;-67
2022/06/04 04:08:48;;;;;;;;;;;;;;;16.52;65.82;100895.97;1798423;78;21031;-66
2022/06/04 04:11:19;;;;;;;3.72;1.60;;;;;;;16.60;65.09;100900.91;1797951;79;20986;-66
2022/06/04 04:13:46;;;;;;;3.20;1.50;;;;;;;16.70;64.65;100892.89;1796236;79;20948;-65
2022/06/04 04:16:16;;;;;;;1.95;1.65;;;;;;;16.81;63.74;100897.19;1795806;78;21856;-65
2022/06/04 04:18:44;;;;;;;1.62;1.30;;;;;;;16.93;63.43;100902.66;1798273;78;20983;-65
2022/06/04 04:21:14;;;;;;;2.22;1.30;;;;;;;17.03;62.84;100898.59;1793797;79;20999;-66
2022/06/04 04:23:41;;;;;;;2.47;1.30;;;;;;;17.11;62.68;100894.67;1797891;79;21369;-65
2022/06/04 04:26:10;;;;;;;2.02;1.55;;;;;;;17.21;62.25;100897.27;1798768;78;21055;-66
2022/06/04 04:28:37;;;;;;;2.67;1.47;;;;;;;17.30;61.97;100900.37;1799423;78;22555;-66
2022/06/04 04:31:18;;;;;;;3.33;1.30;;;;;;;17.38;61.35;100901.28;1785449;79;20992;-65
2022/06/04 04:33:45;;;;;;;1.35;1.20;;;;;;;17.46;60.70;100901.83;1794480;79;20976;-66
2022/06/04 04:36:13;;;;;;;1.77;1.30;;;;;;;17.54;60.33;100900.56;1799215;79;20993;-66
2022/06/04 04:38:39;;;;;;;3.10;1.37;;;;;;;17.60;59.88;100898.63;1777368;79;21075;-66
2022/06/04 04:41:12;;;;;;;3.22;1.45;;;;;;;17.67;59.37;100897.02;1795567;79;21666;-66
2022/06/04 04:43:39;;;;;;;1.77;1.50;;;;;;;17.73;59.01;100895.08;1798391;79;21036;-65
2022/06/04 04:46:11;;;;;;;3.52;1.27;;;;;;;17.81;58.55;100886.80;1775851;79;21016;-66
2022/06/04 04:48:39;;;;;;;3.25;1.62;;;;;;;17.89;58.45;100893.53;1797688;78;21002;-66
2022/06/04 04:51:06;;;;;;;1.95;1.22;;;;;;;17.93;58.08;100901.06;1797297;79;20821;-67
2022/06/04 04:53:33;;;;;;;3.17;1.40;;;;;;;17.99;57.65;100904.46;1796629;79;21784;-66
2022/06/04 04:56:00;;;;;;;2.27;1.37;;;;;;;18.05;57.06;100902.14;1798816;79;20960;-67
2022/06/04 04:58:27;;;;;;;3.77;1.20;;;;;;;18.11;56.59;100906.38;1793504;78;21059;-67
2022/06/04 05:00:54;;;;;;;1.40;1.30;;;;;;;18.17;56.06;100912.44;1789225;79;20980;-67
2022/06/04 05:03:20;;;;;;;4.72;1.57;;;;;;;18.24;55.35;100909.98;1793719;79;21063;-66
2022/06/04 05:05:58;;;;;;;5.33;1.50;;;;;;;18.30;55.41;100908.82;1806662;78;21994;-67
2022/06/04 05:08:25;;;;;;;2.00;1.30;;;;;;;18.38;55.55;100914.72;1781683;79;20955;-68
2022/06/04 05:10:52;;;;;;;1.50;1.40;;;;;;;18.45;55.46;100912.25;1780278;80;21059;-66
2022/06/04 05:13:20;;;;;;;2.35;1.20;;;;;;;18.51;55.16;100916.45;1785307;78;21035;-67
2022/06/04 05:15:47;;;;;;;3.37;1.52;;;;;;;18.57;55.18;100916.32;1781881;79;21047;-67
2022/06/04 05:18:15;;;;;;;1.30;1.20;;;;;;;18.66;54.97;100908.70;1785932;78;21011;-66
2022/06/04 05:20:43;;;;;;;3.70;1.40;;;;;;;18.72;54.69;100912.55;1793567;78;20966;-66
2022/06/04 05:23:10;;;;;;;1.85;1.50;;;;;;;18.77;54.54;100909.73;1767711;79;21055;-66
2022/06/04 05:25:38;;;;;;;4.10;1.40;;;;;;;18.80;54.18;100907.23;1795726;79;21588;-67
2022/06/04 05:28:07;;;;;;;5.40;1.60;;;;;;;18.83;54.21;100900.23;1785716;78;21106;-67
2022/06/04 05:30:35;;;;;;;1.85;1.35;;;;;;;18.89;54.44;100900.91;1763195;81;21038;-67
2022/06/04 05:33:02;;;;;;;1.35;1.25;;;;;;;18.97;54.28;100907.63;1767574;81;21019;-65
2022/06/04 05:35:30;;;;;;;1.45;1.30;;;;;;;19.02;53.78;100904.48;1774357;78;21079;-66
2022/06/04 05:37:58;;;;;;;1.92;1.42;;;;;;;19.11;53.88;100898.14;1789209;78;21000;-66
2022/06/04 05:40:25;;;;;;;2.20;1.30;;;;;;;19.19;53.84;100898.63;1729482;81;20935;-66
2022/06/04 05:42:51;;;;;;;1.67;1.32;;;;;;;19.24;53.46;100895.81;1772186;80;21846;-69
2022/06/04 05:45:18;;;;;;;2.45;1.47;;;;;;;19.32;53.38;100902.52;1763067;81;21476;-68
2022/06/04 05:47:45;;;;;;;2.62;1.22;;;;;;;19.39;52.40;100908.03;1815426;78;21034;-72
2022/06/04 05:50:12;;;;;;;2.65;1.10;;;;;;;19.43;52.40;100904.87;1782447;78;21039;-72
2022/06/04 05:52:40;;;;;;;4.37;1.20;;;;;;;19.50;52.10;100910.91;1792192;78;20974;-70
2022/06/04 05:55:08;;;;;;;2.37;1.17;;;;;;;19.56;52.22;100907.58;1768217;81;21136;-68
2022/06/04 05:57:36;;;;;;;2.45;1.27;;;;;;;19.63;51.74;100906.75;1759448;80;21040;-70
2022/06/04 06:00:08;;;;;;;1.32;1.10;;;;;;;19.71;51.71;100905.91;1785571;80;21549;-69
2022/06/04 06:02:36;;;;;;;;;;;;;;;19.73;50.82;100906.07;1784960;78;21043;-68
2022/06/04 06:05:04;;;;;;;9.58;3.60;;;;;;;19.78;50.74;100901.53;1787003;79;20179;-69
2022/06/04 06:07:32;;;;;;;2.77;1.60;;;;;;;19.88;50.40;100903.56;1775433;79;20983;-66
2022/06/04 06:10:00;;;;;;;4.62;1.27;;;;;;;20.00;49.54;100906.22;1772592;79;20905;-67
2022/06/04 06:12:27;;;;;;;4.28;1.30;;;;;;;20.09;48.77;100899.50;1783862;80;20949;-67
2022/06/04 06:14:55;;;;;;;3.52;1.10;;;;;;;20.14;48.42;100889.09;1778138;79;21036;-68
2022/06/04 06:17:23;;;;;;;1.22;1.12;;;;;;;20.22;48.63;100889.07;1781345;79;21036;-69
2022/06/04 06:19:50;;;;;;;1.67;1.05;;;;;;;20.29;47.89;100883.36;1753299;81;22535;-68
2022/06/04 06:22:18;;;;;;;2.10;1.30;;;;;;;20.37;47.69;100889.20;1788440;78;21075;-67
2022/06/04 06:24:45;;;;;;;2.60;1.00;;;;;;;20.41;47.26;100889.18;1780817;79;21046;-68
2022/06/04 06:27:12;;;;;;;1.75;0.90;;;;;;;20.49;47.28;100882.48;1764965;80;21983;-67
2022/06/04 06:29:41;;;;;;;0.80;0.80;;;;;;;20.58;46.90;100878.75;1773728;80;21265;-67
2022/06/04 06:32:09;;;;;;;2.95;1.00;;;;;;;20.63;46.34;100876.36;1750175;80;21985;-68
2022/06/04 06:34:36;;;;;;;1.67;1.10;;;;;;;20.65;46.17;100877.02;1779641;80;21036;-69
2022/06/04 06:37:04;;;;;;;2.40;0.90;;;;;;;20.74;46.45;100881.84;1781133;79;21071;-69
2022/06/04 06:39:31;;;;;;;1.37;0.80;;;;;;;20.84;46.03;100877.09;1753731;81;21049;-68
2022/06/04 06:41:57;;;;;;;1.02;0.80;;;;;;;20.91;45.64;100880.75;1783822;79;21059;-69
2022/06/04 06:44:26;;;;;;;2.58;1.10;;;;;;;20.96;45.51;100881.07;1776073;79;21868;-69
2022/06/04 06:46:52;;;;;;;1.80;1.00;;;;;;;21.03;45.46;100879.84;1783544;80;21029;-70
2022/06/04 06:49:25;;;;;;;1.20;1.10;;;;;;;21.09;44.90;100879.14;1787574;80;21087;-70
2022/06/04 06:51:54;;;;;;;;;;;;;;;21.15;44.59;100875.75;1763192;79;20973;-71
2022/06/04 06:54:23;;;;;;;17.77;16.00;;;;;;;21.20;44.35;100873.86;1752055;79;20126;-70
2022/06/04 06:57:04;;;;;;;6.42;3.70;;;;;;;21.26;44.31;100861.92;1748225;81;20988;-71
2022/06/04 06:59:31;;;;;;;2.80;1.60;;;;;;;21.31;44.50;100864.89;1771487;80;20996;-69
2022/06/04 07:01:59;;;;;;;29.45;26.12;;;;;;;21.40;43.87;100862.47;1780106;79;21448;-69
2022/06/04 07:04:27;;;;;;;8.20;7.40;;;;;;;21.48;43.63;100857.55;1780106;80;20968;-67
2022/06/04 07:06:59;;;;;;;3.02;2.67;;;;;;;21.56;43.64;100856.64;1781648;78;21055;-68
2022/06/04 07:09:31;;;;;;;2.37;1.95;;;;;;;21.65;43.03;100861.77;1789140;80;21963;-67
2022/06/04 07:11:58;;;;;;;13.03;11.25;;;;;;;21.68;42.07;100855.18;1789941;79;20935;-68
2022/06/04 07:14:28;;;;;;;3.02;2.58;;;;;;;21.76;41.66;100850.24;1782904;78;21589;-68
2022/06/04 07:16:55;;;;;;;3.72;1.40;;;;;;;21.87;41.23;100857.34;1786764;78;20984;-69
2022/06/04 07:19:24;;;;;;;5.50;1.05;;;;;;;21.94;40.55;100850.73;1779987;80;20989;-70
2022/06/04 07:21:52;;;;;;;1.65;0.80;;;;;;;21.97;40.69;100851.70;1784095;80;21729;-68
2022/06/04 07:24:18;;;;;;;1.98;0.80;;;;;;;21.94;39.99;100840.81;1765539;80;21034;-69
2022/06/04 07:26:46;;;;;;;0.98;0.80;;;;;;;21.86;40.04;100841.40;1776466;79;20945;-72
2022/06/04 07:29:13;;;;;;;0.62;0.62;;;;;;;21.82;40.85;100841.45;1781067;80;20964;-69
2022/06/04 07:31:39;;;;;;;2.20;1.60;;;;;;;21.87;40.68;100837.69;1781235;78;21046;-71
2022/06/04 07:34:06;;;;;;;3.67;1.02;;;;;;;21.93;40.78;100841.83;1774134;78;21914;-68
2022/06/04 07:36:43;;;;;;;6.30;1.00;;;;;;;22.00;39.74;100841.91;1778721;78;20992;-70
2022/06/04 07:39:11;;;;;;;7.92;3.35;;;;;;;22.01;39.49;100835.53;1786249;78;21083;-70
2022/06/04 07:41:40;;;;;;;21.37;18.37;;;;;;;22.05;40.18;100838.16;1780682;78;20969;-69
2022/06/04 07:44:07;;;;;;;17.75;11.10;;;;;;;;;;1789054;78;21441;-71
2022/06/04 07:46:34;;;;;;;6.50;4.25;;;;;;;22.19;40.26;100839.20;1776380;80;21805;-70
2022/06/04 07:49:01;;;;;;;6.95;2.05;;;;;;;22.26;39.57;100833.41;1785720;78;21000;-71
2022/06/04 07:51:35;;;;;;;6.00;1.40;;;;;;;22.31;39.14;100835.55;1782076;78;21043;-76
2022/06/04 07:54:04;;;;;;;5.25;1.10;;;;;;;22.38;39.00;100827.03;1765690;81;21066;-70
2022/06/04 07:56:32;;;;;;;3.12;1.10;;;;;;;22.49;38.84;100827.92;1771282;80;21038;-72
2022/06/04 07:58:59;;;;;;;3.80;0.90;;;;;;;22.60;39.19;100821.22;1786738;78;21943;-73
2022/06/04 08:01:28;;;;;;;1.45;0.70;;;;;;;22.70;38.73;100820.40;1784687;78;21086;-76
2022/06/04 08:03:54;;;;;;;2.90;1.00;;;;;;;22.73;38.95;100818.66;1781681;78;21019;-76
2022/06/04 08:06:22;;;;;;;3.35;0.88;;;;;;;22.72;38.18;100824.56;1723723;81;21511;-74
2022/06/04 08:08:51;;;;;;;7.62;1.55;;;;;;;22.70;39.47;100819.89;1724108;82;21032;-73
2022/06/04 08:11:33;;;;;;;2.92;0.90;;;;;;;22.83;38.86;100821.88;1722261;81;21926;-71
2022/06/04 08:14:13;;;;;;;2.17;0.95;;;;;;;22.97;38.97;100814.79;1737567;80;21107;-73
2022/06/04 08:16:46;;;;;;;1.80;0.88;;;;;;;23.04;37.96;100815.70;1727308;81;21118;-73
2022/06/04 08:19:15;;;;;;;1.35;0.70;;;;;;;22.99;37.67;100808.20;1740034;81;21055;-73
2022/06/04 08:21:42;;;;;;;2.52;0.93;;;;;;;22.94;37.38;100810.63;1741278;80;21031;-74
2022/06/04 08:24:09;;;;;;;4.22;1.10;;;;;;;22.90;37.93;100803.14;1732296;81;21898;-73
2022/06/04 08:26:35;;;;;;;3.40;1.00;;;;;;;22.97;38.30;100792.75;1741682;81;21022;-72
2022/06/04 08:29:02;;;;;;;1.30;0.88;;;;;;;23.06;38.20;100786.70;1740815;81;21513;-74
2022/06/04 08:31:29;;;;;;;14.60;1.80;;;;;;;23.08;37.42;100785.50;1747016;81;21051;-73
2022/06/04 08:33:56;;;;;;;3.00;1.00;;;;;;;23.06;38.25;100782.14;1727776;81;21430;-71
2022/06/04 08:36:23;;;;;;;2.85;0.90;;;;;;;23.12;37.92;100784.07;1750558;81;22003;-72
2022/06/04 08:38:52;;;;;;;9.53;6.28;;;;;;;23.16;38.33;100785.85;1741842;81;21052;-78
2022/06/04 08:41:38;;;;;;;4.10;2.47;;;;;;;23.26;38.65;100779.65;1735549;81;21795;-76
2022/06/04 08:44:16;;;;;;;6.40;2.50;;;;;;;23.42;38.08;100771.77;1743569;80;21117;-76
2022/06/04 08:46:50;;;;;;;18.30;8.73;;;;;;;23.52;38.40;100768.21;1738386;81;21075;-76
2022/06/04 08:49:29;;;;;;;4.92;1.92;;;;;;;23.64;38.09;100763.99;1742044;81;21572;-77
2022/06/04 08:51:58;;;;;;;2.27;1.47;;;;;;;23.79;38.47;100770.61;1740849;81;21093;-76
2022/06/04 09:00:12;;;;;;;1.20;0.70;;;;;;;23.75;36.80;100761.25;1727270;81;21075;-76
2022/06/04 09:03:00;;;;;;;0.50;0.50;;;;;;;23.66;36.34;100752.48;1705137;83;22233;-75
2022/06/04 09:05:36;;;;;;;4.45;0.72;;;;;;;23.73;37.73;100754.37;1720215;80;21552;-74
2022/06/04 09:08:07;;;;;;;1.10;0.80;;;;;;;23.94;37.45;100744.86;1754271;80;21024;-74
2022/06/04 09:10:51;;;;;;;2.12;0.78;;;;;;;24.10;36.87;100745.85;1746179;81;21000;-74
2022/06/04 09:13:50;;;;;;;1.55;0.80;;;;;;;24.24;36.46;100744.89;1791971;79;21532;-74
2022/06/04 09:16:31;;;;;;;1.77;0.80;;;;;;;24.44;35.94;100749.03;1789826;79;21919;-73
2022/06/04 09:19:00;;;;;;;1.12;0.60;;;;;;;24.61;34.60;100747.28;1791683;78;21293;-73
2022/06/04 09:21:35;;;;;;;4.80;1.00;;;;;;;24.72;34.75;100740.78;1787527;79;21005;-77
2022/06/04 09:24:02;;;;;;;1.92;0.70;;;;;;;24.76;33.51;100735.27;1781018;78;21417;-77
2022/06/04 09:26:48;;;;;;;0.95;0.60;;;;;;;24.72;34.38;100731.85;1797560;79;21015;-78
2022/06/04 09:29:47;;;;;;;1.02;0.65;;;;;;;24.77;34.15;100733.41;1786341;78;22022;-75
2022/06/04 09:32:47;;;;;;;2.12;0.80;;;;;;;24.89;33.44;100733.09;1793717;78;21095;-75
2022/06/04 09:35:25;;;;;;;1.20;0.70;;;;;;;24.97;33.61;100728.84;1792339;78;21066;-77
2022/06/04 09:37:52;;;;;;;1.55;0.75;;;;;;;24.96;32.74;100719.08;1787609;78;21043;-77
2022/06/04 09:40:26;;;;;;;4.50;0.90;;;;;;;24.93;33.56;100726.78;1779117;79;21109;-76
2022/06/04 09:43:14;;;;;;;3.72;0.68;;;;;;;25.00;33.69;100733.86;1750222;80;21938;-78
2022/06/04 09:45:41;;;;;;;1.67;0.78;;;;;;;25.11;33.00;100736.48;1800404;78;21140;-73
2022/06/04 09:48:23;;;;;;;1.12;0.65;;;;;;;25.22;34.36;100738.55;1796708;79;21522;-77
2022/06/04 09:50:53;;;;;;;1.75;0.72;;;;;;;25.43;32.65;100733.44;1780835;79;21027;-77
2022/06/04 09:53:26;;;;;;;2.33;0.80;;;;;;;25.53;32.88;100728.42;1792274;79;21044;-76
2022/06/04 09:56:16;;;;;;;2.15;0.60;;;;;;;25.63;32.24;100725.28;1797654;79;22314;-80
2022/06/04 09:58:47;;;;;;;1.85;0.70;;;;;;;25.63;31.34;100717.99;1792458;79;21055;-74
2022/06/04 10:01:20;;;;;;;5.03;0.80;;;;;;;25.46;30.73;100718.13;1786582;78;21039;-76
2022/06/04 10:04:05;;;;;;;3.05;0.85;;;;;;;25.33;31.90;100720.86;1800007;79;21491;-82
2022/06/04 10:06:32;;;;;;;2.25;0.75;;;;;;;25.53;32.57;100715.42;1734245;80;20970;-79
2022/06/04 10:12:06;;;;;;;1.87;0.70;;;;;;;26.02;30.45;100709.46;1761110;79;21086;-76
2022/06/04 10:14:39;;;;;;;1.50;0.70;;;;;;;26.09;30.55;100710.80;1784260;79;20943;-75
2022/06/04 10:17:19;;;;;;;1.12;0.65;;;;;;;26.18;30.77;100708.98;1780582;80;21459;-73
2022/06/04 10:19:54;;;;;;;0.78;0.40;;;;;;;26.35;30.82;100711.19;1777029;79;21545;-73
2022/06/04 10:22:26;;;;;;;2.58;0.80;;;;;;;26.57;30.74;100698.99;1809613;78;21923;-70
2022/06/04 10:24:56;;;;;;;6.25;1.00;;;;;;;26.80;30.84;100696.52;1801893;78;20920;-70
2022/06/04 10:27:40;;;;;;;1.10;0.68;;;;;;;26.96;30.10;100693.80;1774228;80;21019;-71
2022/06/04 10:30:43;;;;;;;0.90;0.70;;;;;;;27.13;29.94;100695.45;1767676;79;21027;-72
2022/06/04 10:33:16;;;;;;;0.95;0.70;;;;;;;27.24;30.19;100687.11;1749830;80;21102;-71
2022/06/04 10:35:56;;;;;;;0.80;0.50;;;;;;;27.36;28.10;100679.89;1752124;80;21933;-71
2022/06/04 10:38:41;;;;;;;1.60;0.72;;;;;;;27.35;28.17;100690.44;1789354;79;21020;-70
2022/06/04 10:41:35;;;;;;;0.85;0.60;;;;;;;27.47;29.21;100681.85;1783010;80;21025;-69
2022/06/04 10:44:31;;;;;;;3.52;0.60;;;;;;;27.63;29.14;100685.33;1785970;79;21060;-70
2022/06/04 10:47:22;;;;;;;1.12;0.60;;;;;;;27.84;29.05;100683.23;1777384;78;21035;-72
2022/06/04 10:50:07;;;;;;;1.70;0.50;;;;;;;28.00;27.17;100690.77;1778529;79;21746;-73
2022/06/04 10:52:48;;;;;;;1.22;0.70;;;;;;;28.05;27.83;100681.39;1781339;79;21053;-74
2022/06/04 10:55:35;;;;;;;4.58;0.80;;;;;;;28.28;27.75;100672.56;1775298;78;21040;-76
2022/06/04 10:58:31;;;;;;;1.17;0.65;;;;;;;28.49;27.88;100670.67;1783139;79;21028;-75
2022/06/04 11:01:26;;;;;;;0.80;0.60;;;;;;;28.71;27.48;100680.45;1774238;78;21079;-76
2022/06/04 11:04:08;;;;;;;6.60;0.80;;;;;;;28.75;25.71;100680.27;1770155;79;21907;-78
2022/06/04 11:07:00;;;;;;;0.98;0.50;;;;;;;28.62;27.35;100678.31;1778000;78;21035;-75
2022/06/04 11:09:39;;;;;;;1.47;0.80;;;;;;;28.75;27.51;100678.09;1767516;79;21039;-74
2022/06/04 11:12:34;;;;;;;1.60;0.70;;;;;;;28.97;26.52;100681.95;1770134;80;21023;-73
2022/06/04 11:15:06;;;;;;;1.77;0.70;;;;;;;29.12;25.12;100686.91;1767394;79;21047;-72
2022/06/04 11:17:51;;;;;;;2.10;0.60;;;;;;;29.14;25.14;100675.25;1767745;81;21938;-72
2022/06/04 11:20:21;;;;;;;4.60;0.68;;;;;;;29.19;26.23;100675.91;1790870;78;21091;-73
2022/06/04 11:22:56;;;;;;;1.72;0.62;;;;;;;29.43;26.89;100661.20;1786046;78;21012;-72
2022/06/04 11:25:30;;;;;;;1.77;0.60;;;;;;;29.60;24.76;100657.25;1777960;78;21413;-74
2022/06/04 11:28:03;;;;;;;1.12;0.70;;;;;;;29.70;24.68;100645.75;1789416;78;20952;-75
2022/06/04 11:30:53;;;;;;;0.98;0.60;;;;;;;29.78;25.41;100646.73;1786063;79;21935;-72
2022/06/04 11:33:43;;;;;;;0.88;0.62;;;;;;;29.79;24.22;100648.38;1765504;80;20987;-74
2022/06/04 11:36:41;;;;;;;0.60;0.60;;;;;;;29.72;24.84;100651.77;1777032;79;21035;-74
2022/06/04 11:39:26;;;;;;;1.15;0.62;;;;;;;29.74;24.58;100645.58;1756490;79;21506;-74
2022/06/04 11:42:00;;;;;;;6.70;0.88;;;;;;;29.65;24.18;100645.12;1783491;79;22084;-73
2022/06/04 11:44:34;;;;;;;4.30;0.60;;;;;;;29.39;24.63;100642.36;1797575;79;21635;-78
2022/06/04 11:47:06;;;;;;;0.82;0.60;;;;;;;29.48;25.50;100639.59;1755748;80;21070;-73
2022/06/04 11:50:06;;;;;;;0.85;0.57;;;;;;;29.75;25.29;100628.99;1796950;79;20949;-74
2022/06/04 11:52:38;;;;;;;1.42;0.60;;;;;;;30.03;24.91;100631.44;1794688;79;21051;-74
2022/06/04 11:55:36;;;;;;;2.60;0.70;;;;;;;30.10;23.78;100628.86;1796847;79;20973;-74
2022/06/04 11:58:27;;;;;;;1.40;0.50;;;;;;;29.92;23.95;100623.61;1799322;79;21812;-73
2022/06/04 12:00:58;;;;;;;2.20;0.55;;;;;;;29.43;24.14;100627.73;1799390;79;20981;-73
2022/06/04 12:03:36;;;;;;;2.35;0.80;;;;;;;29.11;24.77;100620.51;1797620;79;21086;-74
2022/06/04 12:06:10;;;;;;;1.27;0.55;;;;;;;28.98;25.45;100626.49;1792141;78;21506;-74
2022/06/04 12:08:42;;;;;;;5.03;0.70;;;;;;;28.99;25.08;100619.98;1784637;79;20943;-74
2022/06/04 12:11:20;;;;;;;3.77;0.70;;;;;;;28.98;25.83;100615.62;1788933;80;21920;-73
2022/06/04 12:14:06;;;;;;;1.45;0.70;;;;;;;29.22;25.88;100604.70;1789890;80;20922;-73
2022/06/04 12:17:17;;;;;;;1.40;0.70;;;;;;;29.48;25.94;100606.94;1736089;80;20977;-74
2022/06/04 12:25:45;;;;;;;1.85;0.68;;;;;;;30.19;24.62;100576.17;1761006;80;21479;-74
2022/06/04 12:28:30;;;;;;;1.22;0.60;;;;;;;30.41;24.16;100577.65;1790578;79;20987;-74
2022/06/04 12:31:01;;;;;;;3.27;0.60;;;;;;;30.62;24.58;100578.80;1790366;79;21437;-73
2022/06/04 12:33:40;;;;;;;2.35;0.70;;;;;;;30.65;23.78;100576.41;1789467;79;20954;-74
2022/06/04 12:36:10;;;;;;;2.00;0.57;;;;;;;30.52;24.59;100577.27;1760126;80;21004;-73
2022/06/04 12:38:40;;;;;;;2.67;0.60;;;;;;;30.38;24.44;100571.30;1770314;80;21831;-73
2022/06/04 12:41:19;;;;;;;2.65;0.62;;;;;;;30.28;24.92;100571.14;1765569;80;20988;-74
2022/06/04 12:44:01;;;;;;;0.90;0.55;;;;;;;30.28;25.18;100567.88;1790210;80;20997;-74
2022/06/04 12:46:33;;;;;;;1.05;0.60;;;;;;;30.55;24.89;100560.41;1790225;80;20949;-74